Time;durP1;ratioP1;P1;durP2;ratioP2;P2;SDS_P1;SDS_P2;PMS_P1;PMS_P2;Temp;Humidity;BMP_temperature;BMP_pressure;BME280_temperature;BME280_humidity;BME280_pressure;Samples;Min_cycle;Max_cycle;Signal;HPM_P1;HPM_P2
2022/03/17 00:00:17;;;;;;;18.15;13.93;;;;;;;11.09;100.00;101767.13;5089027;28;20040;-28
2022/03/17 00:02:45;;;;;;;17.92;13.40;;;;;;;11.09;100.00;101770.75;5088977;28;20040;-30
2022/03/17 00:05:13;;;;;;;18.33;13.70;;;;;;;11.09;100.00;101767.97;5089696;28;20481;-29
2022/03/17 00:07:43;;;;;;;18.40;12.95;;;;;;;11.10;100.00;101757.63;5090036;28;20063;-30
2022/03/17 00:10:15;;;;;;;17.88;13.70;;;;;;;11.11;100.00;101762.09;5089581;28;20091;-29
2022/03/17 00:12:44;;;;;;;16.08;12.35;;;;;;;11.08;100.00;101760.69;5089933;28;20054;-29
2022/03/17 00:15:12;;;;;;;18.33;13.98;;;;;;;11.09;100.00;101767.97;5090304;28;20064;-29
2022/03/17 00:17:41;;;;;;;17.73;13.40;;;;;;;11.11;100.00;101762.09;5089967;28;20047;-30
2022/03/17 00:20:11;;;;;;;18.23;13.02;;;;;;;11.11;100.00;101756.50;5089699;28;20044;-29
2022/03/17 00:22:39;;;;;;;17.80;13.27;;;;;;;11.10;100.00;101761.25;5088920;28;20040;-28
2022/03/17 00:25:09;;;;;;;18.20;13.20;;;;;;;11.10;100.00;101761.25;5089310;28;20127;-28
2022/03/17 00:27:39;;;;;;;20.02;14.27;;;;;;;11.12;100.00;101761.81;5087036;28;20048;-28
2022/03/17 00:30:08;;;;;;;16.88;13.05;;;;;;;11.11;100.00;101757.34;5078805;28;20130;-29
2022/03/17 00:32:38;;;;;;;18.23;13.30;;;;;;;11.11;100.00;101754.56;5089103;28;20047;-30
2022/03/17 00:37:53;;;;;;;17.98;13.70;;;;;;;11.10;100.00;101752.03;5090515;28;20048;-31
2022/03/17 00:40:21;;;;;;;18.10;13.15;;;;;;;11.08;100.00;101752.31;5090990;28;20051;-31
2022/03/17 00:42:51;;;;;;;19.38;13.30;;;;;;;11.03;100.00;101753.16;5091086;28;20044;-29
2022/03/17 00:45:19;;;;;;;21.75;15.50;;;;;;;10.99;100.00;101759.59;5090108;28;20052;-28
2022/03/17 00:47:47;;;;;;;18.63;14.07;;;;;;;10.98;100.00;101758.75;5090892;28;20154;-29
2022/03/17 00:50:14;;;;;;;17.98;13.23;;;;;;;10.94;100.00;101757.66;5090826;28;20056;-35
2022/03/17 00:52:42;;;;;;;20.10;13.77;;;;;;;10.94;100.00;101762.38;5090695;28;20397;-34
2022/03/17 00:55:10;;;;;;;18.92;13.52;;;;;;;10.91;100.00;101763.78;5091352;28;20084;-34
2022/03/17 00:57:39;;;;;;;19.10;13.85;;;;;;;10.87;100.00;101757.06;5090705;28;20066;-34
2022/03/17 01:00:14;;;;;;;19.60;13.70;;;;;;;10.87;100.00;101759.03;5090975;28;20044;-27
2022/03/17 01:02:42;;;;;;;20.73;14.10;;;;;;;10.85;100.00;101758.47;5091079;28;20465;-28
2022/03/17 01:05:11;;;;;;;22.08;15.07;;;;;;;10.84;100.00;101757.63;5090373;28;20043;-34
2022/03/17 01:07:39;;;;;;;19.70;14.10;;;;;;;10.84;100.00;101762.38;5091060;28;20109;-30
2022/03/17 01:10:08;;;;;;;20.13;15.25;;;;;;;10.82;100.00;101759.03;5091085;28;20044;-28
2022/03/17 01:12:36;;;;;;;18.88;14.50;;;;;;;10.80;100.00;101766.84;5093029;28;20366;-28
2022/03/17 01:15:06;;;;;;;20.15;14.45;;;;;;;10.77;100.00;101776.63;5094452;28;20040;-29
2022/03/17 01:17:35;;;;;;;24.02;15.02;;;;;;;10.72;100.00;101771.03;5094462;28;20072;-28
2022/03/17 01:20:04;;;;;;;21.95;15.73;;;;;;;10.68;100.00;101773.53;5093774;28;20051;-28
2022/03/17 01:22:32;;;;;;;19.25;14.75;;;;;;;10.60;100.00;101774.06;5094462;28;20137;-28
2022/03/17 01:25:00;;;;;;;20.90;15.00;;;;;;;10.57;100.00;101771.88;5094866;28;20048;-30
2022/03/17 01:27:29;;;;;;;22.23;15.02;;;;;;;10.52;100.00;101771.00;5093860;28;20485;-27
2022/03/17 01:29:57;;;;;;;22.08;15.80;;;;;;;10.44;100.00;101772.38;5092951;28;20052;-27
2022/03/17 01:32:25;;;;;;;21.17;15.57;;;;;;;10.40;100.00;101759.25;5093769;28;20044;-28
2022/03/17 01:34:54;;;;;;;21.17;15.70;;;;;;;10.36;100.00;101764.56;5094337;28;20449;-26
2022/03/17 01:37:22;;;;;;;22.55;15.73;;;;;;;10.33;100.00;101768.75;5083190;28;20060;-27
2022/03/17 01:39:50;;;;;;;22.50;16.60;;;;;;;10.31;100.00;101765.38;5092673;28;20056;-27
2022/03/17 01:42:18;;;;;;;19.50;14.20;;;;;;;10.28;100.00;101768.72;5094144;28;20097;-28
2022/03/17 01:44:45;;;;;;;23.77;16.85;;;;;;;10.28;100.00;101776.25;5093907;28;20052;-29
2022/03/17 01:47:28;;;;;;;22.30;15.63;;;;;;;10.24;100.00;101772.34;5094026;28;20044;-28
2022/03/17 01:50:00;;;;;;;20.90;14.77;;;;;;;10.20;100.00;101777.63;5093683;28;20123;-28
2022/03/17 01:52:28;;;;;;;22.65;16.98;;;;;;;10.16;100.00;101775.63;5090933;28;20055;-28
2022/03/17 01:54:57;;;;;;;24.63;17.92;;;;;;;10.13;100.00;101784.56;5093325;28;20048;-27
2022/03/17 01:57:25;;;;;;;22.52;15.95;;;;;;;10.13;100.00;101785.38;5093485;28;20560;-27
2022/03/17 01:59:54;;;;;;;21.65;16.02;;;;;;;10.12;100.00;101782.88;5093714;28;20055;-29
2022/03/17 02:02:22;;;;;;;21.70;14.45;;;;;;;10.10;100.00;101790.66;5093510;28;20118;-27
2022/03/17 02:04:50;;;;;;;21.70;15.15;;;;;;;10.07;100.00;101797.63;5093527;28;20062;-28
2022/03/17 02:07:20;;;;;;;25.08;17.10;;;;;;;10.05;100.00;101793.44;5093559;28;20048;-27
2022/03/17 02:09:49;;;;;;;23.40;16.63;;;;;;;10.02;100.00;101795.66;5084809;28;20413;-28
2022/03/17 02:15:05;;;;;;;23.77;16.30;;;;;;;10.02;100.00;101817.13;5085763;28;20071;-34
2022/03/17 02:17:39;;;;;;;23.52;16.30;;;;;;;9.96;100.00;101813.50;5093206;28;20062;-28
2022/03/17 02:20:11;;;;;;;27.15;17.58;;;;;;;9.91;100.00;101826.56;5085038;28;20127;-28
2022/03/17 02:22:43;;;;;;;27.27;16.20;;;;;;;9.78;100.00;101841.84;5092585;28;20091;-28
2022/03/17 02:27:59;;;;;;;24.67;12.15;;;;;;;9.38;100.00;101859.13;5093365;28;20040;-29
2022/03/17 02:30:27;;;;;;;18.27;9.73;;;;;;;9.22;100.00;101860.06;5084145;28;20131;-28
2022/03/17 02:33:00;;;;;;;18.30;8.43;;;;;;;9.07;100.00;101848.81;5093062;28;20485;-29
2022/03/17 02:35:28;;;;;;;14.60;6.97;;;;;;;8.91;100.00;101861.75;5092897;28;20044;-29
2022/03/17 02:37:58;;;;;;;13.05;6.00;;;;;;;8.82;100.00;101872.53;5092904;28;20050;-27
2022/03/17 02:40:27;;;;;;;14.05;5.13;;;;;;;8.73;100.00;101868.53;5092887;28;20048;-32
2022/03/17 02:42:57;;;;;;;12.73;4.38;;;;;;;8.66;100.00;101864.28;5092429;28;20082;-34
2022/03/17 02:45:25;;;;;;;14.85;4.30;;;;;;;8.60;100.00;101868.94;5092533;28;20040;-32
2022/03/17 02:47:53;;;;;;;9.20;3.35;;;;;;;8.52;100.00;101870.25;5093018;28;20071;-31
2022/03/17 02:50:21;;;;;;;9.75;3.13;;;;;;;8.49;100.00;101869.94;5092223;28;20036;-29
2022/03/17 02:52:49;;;;;;;10.65;3.30;;;;;;;8.46;100.00;101876.03;5092340;28;20412;-27
2022/03/17 02:55:17;;;;;;;11.20;3.22;;;;;;;8.40;100.00;101877.88;5092800;28;20122;-27
2022/03/17 02:57:47;;;;;;;10.13;2.88;;;;;;;8.37;100.00;101895.13;5091779;28;20105;-28
2022/03/17 03:00:15;;;;;;;12.55;3.13;;;;;;;8.34;100.00;101895.63;5092555;28;20503;-27
2022/03/17 03:02:44;;;;;;;8.00;2.88;;;;;;;8.31;100.00;101898.91;5088892;28;20044;-26
2022/03/17 03:05:17;;;;;;;11.27;3.70;;;;;;;8.26;100.00;101896.88;5081240;28;20040;-27
2022/03/17 03:07:45;;;;;;;10.80;3.22;;;;;;;8.22;100.00;101894.88;5092093;28;20480;-28
2022/03/17 03:10:13;;;;;;;13.32;3.08;;;;;;;8.17;100.00;101901.25;5092490;28;20055;-27
2022/03/17 03:12:41;;;;;;;10.90;3.40;;;;;;;8.15;100.00;101911.78;5091613;28;20040;-28
2022/03/17 03:15:10;;;;;;;9.82;3.40;;;;;;;8.13;100.00;101913.97;5092237;28;20052;-29
2022/03/17 03:17:38;;;;;;;13.98;3.92;;;;;;;8.09;100.00;101923.91;5092234;28;20048;-30
2022/03/17 03:20:07;;;;;;;13.30;4.22;;;;;;;8.07;100.00;101928.03;5091411;28;20052;-30
2022/03/17 03:22:39;;;;;;;12.02;4.47;;;;;;;8.02;100.00;101928.81;5091948;28;20512;-28
2022/03/17 03:25:09;;;;;;;16.07;4.23;;;;;;;7.99;100.00;101954.34;5091568;28;20052;-29
2022/03/17 03:27:39;;;;;;;13.50;4.80;;;;;;;7.96;100.00;101949.31;5092306;28;20052;-29
2022/03/17 03:30:11;;;;;;;16.52;4.90;;;;;;;7.95;100.00;101954.03;5092171;28;20040;-29
2022/03/17 03:32:39;;;;;;;18.77;4.72;;;;;;;7.92;100.00;101970.34;5091538;28;20051;-29
2022/03/17 03:37:50;;;;;;;15.07;4.70;;;;;;;7.88;100.00;101974.72;5044632;28;20044;-35
2022/03/17 03:40:18;;;;;;;15.15;4.55;;;;;;;7.87;100.00;101976.66;5051122;28;20398;-28
2022/03/17 03:42:47;;;;;;;15.27;4.63;;;;;;;7.86;100.00;101997.22;5051461;28;20442;-28
2022/03/17 03:45:16;;;;;;;15.30;4.30;;;;;;;7.84;100.00;102004.13;5051628;28;20045;-28
2022/03/17 03:47:44;;;;;;;13.57;4.10;;;;;;;7.83;100.00;102011.59;5050947;28;20040;-28
2022/03/17 03:50:12;;;;;;;16.40;3.42;;;;;;;7.79;100.00;102016.00;5051689;28;20385;-28
2022/03/17 03:52:40;;;;;;;12.05;3.10;;;;;;;7.77;100.00;102026.53;5051445;28;20080;-29
2022/03/17 03:55:09;;;;;;;16.58;3.05;;;;;;;7.77;100.00;102031.25;5050894;28;20056;-29
2022/03/17 03:57:37;;;;;;;12.40;2.67;;;;;;;7.75;100.00;102033.44;5051573;28;20044;-35
2022/03/17 04:00:12;;;;;;;13.00;2.92;;;;;;;7.72;100.00;102042.25;5039800;28;20049;-29
2022/03/17 04:02:41;;;;;;;12.52;2.80;;;;;;;7.71;100.00;102055.31;5051569;28;20045;-29
2022/03/17 04:05:10;;;;;;;14.60;2.30;;;;;;;7.71;100.00;102060.88;5051555;28;20041;-28
2022/03/17 04:07:38;;;;;;;13.35;2.30;;;;;;;7.72;100.00;102079.22;5050869;28;20151;-30
2022/03/17 04:10:07;;;;;;;16.75;2.70;;;;;;;7.72;100.00;102075.59;5050985;28;20053;-28
2022/03/17 04:12:35;;;;;;;17.70;2.70;;;;;;;7.71;100.00;102077.53;5049510;28;20044;-28
2022/03/17 04:15:03;;;;;;;14.10;2.30;;;;;;;7.71;100.00;102085.88;5048966;28;20056;-29
2022/03/17 04:17:31;;;;;;;15.60;2.67;;;;;;;7.69;100.00;102087.22;5049596;28;20076;-29
2022/03/17 04:20:00;;;;;;;18.05;2.80;;;;;;;7.65;100.00;102097.97;5050330;28;20071;-28
2022/03/17 04:22:28;;;;;;;16.60;2.20;;;;;;;7.64;100.00;102104.63;5046921;28;20051;-29
2022/03/17 04:24:55;;;;;;;17.42;2.75;;;;;;;7.64;100.00;102098.22;5050342;28;20052;-28
2022/03/17 04:27:23;;;;;;;19.35;2.75;;;;;;;7.63;100.00;102105.72;5050288;28;20056;-29
2022/03/17 04:29:51;;;;;;;15.07;2.30;;;;;;;7.61;100.00;102121.78;5050530;28;20045;-30
2022/03/17 04:32:19;;;;;;;11.40;1.92;;;;;;;7.59;100.00;102133.16;5050778;28;20490;-29
2022/03/17 04:34:47;;;;;;;14.38;2.22;;;;;;;7.57;100.00;102140.06;5051111;28;20041;-30
2022/03/17 04:37:16;;;;;;;13.15;2.00;;;;;;;7.55;100.00;102151.41;5082047;28;20052;-36
2022/03/17 04:39:43;;;;;;;18.92;2.30;;;;;;;7.53;100.00;102161.94;5080070;28;20055;-31
2022/03/17 04:42:11;;;;;;;16.00;2.72;;;;;;;7.52;100.00;102163.03;5088703;28;20044;-29
2022/03/17 04:44:39;;;;;;;19.77;2.60;;;;;;;7.51;100.00;102168.81;5087319;28;20048;-29
2022/03/17 04:47:07;;;;;;;17.65;2.30;;;;;;;7.52;100.00;102165.81;5091978;28;20476;-28
2022/03/17 04:49:35;;;;;;;23.05;2.75;;;;;;;7.51;100.00;102175.22;5093037;28;20075;-28
2022/03/17 04:53:26;;;;;;;16.40;2.15;;;;;;;7.52;100.00;102188.03;5093411;28;20090;-36
2022/03/17 04:54:52;;;;;;;17.02;2.30;;;;;;;7.50;100.00;102197.69;5092954;28;20040;-29
2022/03/17 04:57:24;;;;;;;24.25;2.80;;;;;;;7.50;100.00;102195.75;5091302;28;20060;-33
2022/03/17 04:59:52;;;;;;;15.87;2.27;;;;;;;7.49;100.00;102207.94;5093788;28;20519;-29
2022/03/17 05:02:19;;;;;;;14.85;1.77;;;;;;;7.48;100.00;102219.31;5092241;28;20305;-28
2022/03/17 05:04:47;;;;;;;13.07;1.92;;;;;;;7.47;100.00;102223.16;5093247;28;20127;-29
2022/03/17 05:07:15;;;;;;;13.70;1.70;;;;;;;7.47;100.00;102239.81;5093740;28;20058;-29
2022/03/17 05:09:43;;;;;;;15.52;2.10;;;;;;;7.46;100.00;102241.75;5093835;28;20413;-28
2022/03/17 05:12:12;;;;;;;14.07;1.83;;;;;;;7.48;100.00;102255.41;5092735;28;20047;-30
2022/03/17 05:14:39;;;;;;;14.18;2.00;;;;;;;7.48;100.00;102264.59;5093970;28;20040;-29
2022/03/17 05:17:07;;;;;;;17.67;2.15;;;;;;;7.49;100.00;102268.22;5093501;28;20052;-28
2022/03/17 05:19:35;;;;;;;15.93;1.70;;;;;;;7.47;100.00;102278.72;5092861;28;20381;-28
2022/03/17 05:22:03;;;;;;;11.55;1.75;;;;;;;7.44;100.00;102288.38;5093472;28;20056;-28
2022/03/17 05:24:32;;;;;;;10.73;1.50;;;;;;;7.39;100.00;102293.84;5090016;28;20038;-30
2022/03/17 05:27:00;;;;;;;12.68;1.90;;;;;;;7.39;100.00;102306.88;5093221;28;20044;-28
2022/03/17 05:29:29;;;;;;;13.73;2.25;;;;;;;7.39;100.00;102313.28;5093334;28;20039;-30
2022/03/17 05:31:57;;;;;;;19.23;1.95;;;;;;;7.38;100.00;102311.59;5092685;28;20052;-27
2022/03/17 05:34:32;;;;;;;16.33;2.28;;;;;;;7.33;100.00;102305.91;5092399;28;20044;-28
2022/03/17 05:36:59;;;;;;;21.88;3.55;;;;;;;7.33;100.00;102327.28;5093315;28;20113;-28
2022/03/17 05:39:27;;;;;;;16.02;1.98;;;;;;;7.32;100.00;102331.13;5093995;28;20043;-29
2022/03/17 05:41:55;;;;;;;13.68;2.10;;;;;;;7.32;100.00;102340.31;5094107;28;20400;-28
2022/03/17 05:44:23;;;;;;;11.85;2.15;;;;;;;7.32;100.00;102345.00;5094099;28;20042;-30
2022/03/17 05:46:52;;;;;;;16.92;2.60;;;;;;;7.32;100.00;102356.97;5092472;28;20579;-28
2022/03/17 05:49:20;;;;;;;16.90;2.17;;;;;;;7.32;100.00;102359.75;5093430;28;20092;-28
2022/03/17 05:51:48;;;;;;;19.38;2.15;;;;;;;7.35;100.00;102377.88;5094057;28;20413;-28
2022/03/17 05:54:15;;;;;;;20.13;2.45;;;;;;;7.36;100.00;102374.00;5092927;28;20094;-28
2022/03/17 05:56:43;;;;;;;14.23;2.60;;;;;;;7.38;100.00;102383.78;5093820;28;20036;-28
2022/03/17 05:59:11;;;;;;;16.33;2.75;;;;;;;7.37;100.00;102392.34;5092288;28;20485;-29
2022/03/17 06:01:39;;;;;;;23.50;2.80;;;;;;;7.39;100.00;102392.97;5092883;28;20044;-29
2022/03/17 06:04:17;;;;;;;22.20;2.75;;;;;;;7.38;100.00;102403.22;5081402;28;20413;-28
2022/03/17 06:06:45;;;;;;;16.58;2.45;;;;;;;7.36;100.00;102405.41;5092753;28;20141;-29
2022/03/17 06:09:12;;;;;;;20.48;2.80;;;;;;;7.34;100.00;102410.34;5092873;28;20123;-27
2022/03/17 06:11:41;;;;;;;19.08;2.63;;;;;;;7.32;100.00;102415.28;5092844;28;20061;-29
2022/03/17 06:14:09;;;;;;;21.20;2.65;;;;;;;7.31;100.00;102430.25;5092417;28;20546;-29
2022/03/17 06:16:37;;;;;;;18.65;2.45;;;;;;;7.31;100.00;102429.41;5092584;28;20050;-28
2022/03/17 06:19:05;;;;;;;18.08;2.70;;;;;;;7.30;100.00;102438.81;5093377;28;20056;-28
2022/03/17 06:21:34;;;;;;;16.63;2.47;;;;;;;7.30;100.00;102441.59;5092742;28;20043;-29
2022/03/17 06:24:02;;;;;;;23.67;3.40;;;;;;;7.31;100.00;102452.47;5092187;28;20044;-29
2022/03/17 06:26:30;;;;;;;18.83;2.67;;;;;;;7.34;100.00;102463.09;5092733;28;20040;-29
2022/03/17 06:28:57;;;;;;;20.80;3.72;;;;;;;7.34;100.00;102465.88;5092528;28;20093;-29
2022/03/17 06:31:25;;;;;;;19.23;2.75;;;;;;;7.33;100.00;102478.06;5092345;28;20052;-29
2022/03/17 06:33:53;;;;;;;17.30;2.45;;;;;;;7.30;100.00;102486.03;5093156;28;20527;-28
2022/03/17 06:36:22;;;;;;;22.23;2.92;;;;;;;7.26;100.00;102488.41;5092066;28;20439;-30
2022/03/17 06:38:51;;;;;;;18.98;2.10;;;;;;;7.23;100.00;102495.28;5093093;28;20050;-28
2022/03/17 06:41:19;;;;;;;19.15;2.65;;;;;;;7.22;100.00;102503.84;5093188;28;20056;-28
2022/03/17 06:43:47;;;;;;;16.33;2.30;;;;;;;7.19;100.00;102507.94;5092004;28;20044;-29
2022/03/17 06:46:14;;;;;;;19.17;2.70;;;;;;;7.21;100.00;102514.09;5092929;28;20032;-27
2022/03/17 06:48:42;;;;;;;21.73;2.72;;;;;;;7.22;100.00;102515.81;5092526;28;20048;-27
2022/03/17 06:51:11;;;;;;;14.75;2.70;;;;;;;7.21;100.00;102530.78;5092317;28;20048;-29
2022/03/17 06:53:39;;;;;;;15.93;2.45;;;;;;;7.24;100.00;102535.00;5092817;28;20048;-28
2022/03/17 06:56:08;;;;;;;16.27;2.47;;;;;;;7.24;100.00;102533.06;5092263;28;20137;-28
2022/03/17 06:58:36;;;;;;;21.88;3.05;;;;;;;7.24;100.00;102546.97;5092535;28;20057;-28
2022/03/17 07:01:03;;;;;;;16.20;2.70;;;;;;;7.23;100.00;102555.53;5092568;28;20044;-28
2022/03/17 07:03:31;;;;;;;21.55;2.88;;;;;;;7.24;100.00;102557.22;5091896;28;20055;-29
2022/03/17 07:05:59;;;;;;;16.52;2.22;;;;;;;7.23;100.00;102570.25;5092464;28;20387;-29
2022/03/17 07:08:27;;;;;;;17.45;2.38;;;;;;;7.25;100.00;102575.56;5092686;28;20054;-29
2022/03/17 07:10:55;;;;;;;14.20;2.05;;;;;;;7.26;100.00;102580.91;5091500;28;20058;-29
2022/03/17 07:13:24;;;;;;;25.30;2.85;;;;;;;7.29;100.00;102584.28;5092723;28;20090;-29
2022/03/17 07:15:52;;;;;;;14.90;2.30;;;;;;;7.30;100.00;102606.25;5092065;28;20040;-27
2022/03/17 07:18:20;;;;;;;16.75;2.50;;;;;;;7.31;100.00;102605.19;5091824;28;20058;-28
2022/03/17 07:20:48;;;;;;;16.73;2.10;;;;;;;7.30;100.00;102609.03;5092072;28;20051;-29
2022/03/17 07:23:16;;;;;;;9.07;1.63;;;;;;;7.28;100.00;102627.88;5092203;28;20043;-28
2022/03/17 07:25:48;;;;;;;13.45;1.90;;;;;;;7.29;100.00;102626.78;5091544;28;20501;-29
2022/03/17 07:28:20;;;;;;;16.73;2.38;;;;;;;7.30;100.00;102624.84;5092092;28;20048;-30
2022/03/17 07:30:49;;;;;;;;;;;;;;;7.25;100.00;102634.72;5092670;28;20061;-28
2022/03/17 07:33:17;;;;;;;20.23;2.00;;;;;;;7.28;100.00;102638.13;5091280;28;19927;-29
2022/03/17 07:35:45;;;;;;;14.63;2.10;;;;;;;7.35;100.00;102648.06;5091918;28;20090;-30
2022/03/17 07:38:12;;;;;;;12.23;2.10;;;;;;;7.48;100.00;102635.91;5091489;28;20040;-30
2022/03/17 07:40:41;;;;;;;14.60;2.13;;;;;;;7.56;100.00;102653.13;5091874;28;20040;-28
2022/03/17 07:43:10;;;;;;;15.23;2.42;;;;;;;7.65;100.00;102661.97;5091741;28;20477;-29
2022/03/17 07:46:05;;;;;;;19.90;2.42;;;;;;;7.70;100.00;102664.88;5070692;28;20097;-31
2022/03/17 07:48:56;;;;;;;15.93;2.58;;;;;;;7.75;100.00;102666.97;5080997;28;20447;-28
2022/03/17 07:51:32;;;;;;;15.63;2.20;;;;;;;7.79;100.00;102674.59;5090492;28;20501;-28
2022/03/17 07:53:59;;;;;;;14.45;2.08;;;;;;;7.83;100.00;102678.56;5090940;28;20044;-29
2022/03/17 07:56:27;;;;;;;16.17;2.35;;;;;;;7.89;100.00;102687.91;5091576;28;20055;-31
2022/03/17 07:58:55;;;;;;;15.70;2.30;;;;;;;7.97;100.00;102690.38;5091661;28;20092;-29
2022/03/17 08:01:25;;;;;;;16.67;2.58;;;;;;;8.16;100.00;102685.56;5090906;28;20062;-35
2022/03/17 08:03:54;;;;;;;17.77;2.95;;;;;;;8.27;100.00;102698.63;5091622;28;20044;-32
2022/03/17 08:06:23;;;;;;;12.90;2.30;;;;;;;8.35;100.00;102697.50;5091507;28;20075;-30
2022/03/17 08:08:50;;;;;;;12.88;2.33;;;;;;;8.41;100.00;102705.69;5091394;28;20035;-29
2022/03/17 08:11:20;;;;;;;12.30;2.38;;;;;;;8.45;100.00;102715.28;5091757;28;20094;-28
2022/03/17 08:13:50;;;;;;;16.45;2.33;;;;;;;8.57;100.00;102713.38;5090998;28;20564;-30
2022/03/17 08:16:18;;;;;;;19.27;2.55;;;;;;;8.66;100.00;102718.56;5091311;28;20044;-30
2022/03/17 08:18:49;;;;;;;14.27;2.40;;;;;;;8.69;100.00;102737.56;5091385;28;20075;-29
2022/03/17 08:21:18;;;;;;;18.73;2.78;;;;;;;8.69;100.00;102732.84;5091828;28;20054;-29
2022/03/17 08:23:46;;;;;;;12.85;2.08;;;;;;;8.81;100.00;102733.69;5095561;28;20059;-28
2022/03/17 08:26:16;;;;;;;12.93;1.95;;;;;;;9.24;100.00;102730.50;5095833;28;20040;-33
2022/03/17 08:28:44;;;;;;;13.98;2.05;;;;;;;9.96;100.00;102738.44;5094902;28;20051;-29
2022/03/17 08:31:14;;;;;;;10.00;1.95;;;;;;;10.66;100.00;102738.88;5095494;28;20040;-28
2022/03/17 08:33:42;;;;;;;12.90;2.45;;;;;;;11.36;100.00;102743.03;5095360;28;20040;-28
2022/03/17 08:36:11;;;;;;;12.60;2.00;;;;;;;11.95;100.00;102760.88;5095015;28;20060;-29
2022/03/17 08:38:38;;;;;;;11.80;2.10;;;;;;;12.58;100.00;102756.50;5095254;28;20047;-30
2022/03/17 08:41:06;;;;;;;11.00;2.17;;;;;;;13.06;100.00;102769.47;5095576;28;20048;-37
2022/03/17 08:43:34;;;;;;;8.55;1.48;;;;;;;13.28;99.73;102771.31;5094395;28;20044;-29
2022/03/17 08:51:35;;;;;;;11.00;1.95;;;;;;;13.97;91.94;102786.00;5093177;28;20048;-29
2022/03/17 08:54:03;;;;;;;12.68;2.22;;;;;;;14.23;90.24;102794.47;5094866;28;20152;-31
2022/03/17 08:56:32;;;;;;;9.55;2.25;;;;;;;14.54;87.93;102801.91;5094748;28;20089;-29
2022/03/17 08:59:01;;;;;;;11.13;1.85;;;;;;;14.82;85.12;102800.50;5095443;28;20048;-29
2022/03/17 09:01:29;;;;;;;12.30;2.40;;;;;;;15.14;83.62;102797.41;5094968;28;20507;-30
2022/03/17 09:03:58;;;;;;;11.65;2.20;;;;;;;15.38;80.51;102803.28;5094284;28;20052;-31
2022/03/17 09:06:27;;;;;;;12.02;2.10;;;;;;;15.69;80.65;102820.94;5094689;28;20082;-34
2022/03/17 09:08:56;;;;;;;9.77;2.05;;;;;;;16.05;77.91;102824.47;5094986;28;20093;-30
2022/03/17 09:11:23;;;;;;;10.45;2.50;;;;;;;16.32;75.33;102826.88;5094159;28;20052;-30
2022/03/17 09:13:52;;;;;;;12.90;2.10;;;;;;;16.60;74.16;102834.59;5086094;28;20036;-30
2022/03/17 09:16:20;;;;;;;11.25;2.00;;;;;;;16.85;72.52;102836.41;5094909;28;20524;-30
2022/03/17 09:18:48;;;;;;;10.52;2.22;;;;;;;17.19;72.28;102834.44;5093781;28;20048;-30
2022/03/17 09:21:17;;;;;;;9.63;2.13;;;;;;;17.44;69.16;102843.81;5094438;28;20040;-30
2022/03/17 09:23:45;;;;;;;8.93;2.00;;;;;;;17.58;67.81;102854.09;5094000;28;20802;-29
2022/03/17 09:26:16;;;;;;;9.57;1.90;;;;;;;17.69;67.14;102848.38;5094435;28;20043;-30
2022/03/17 09:28:43;;;;;;;8.95;1.92;;;;;;;17.83;65.15;102855.00;5094349;28;20051;-32
2022/03/17 09:31:11;;;;;;;7.15;1.67;;;;;;;17.84;64.56;102863.16;5093834;28;20036;-32
2022/03/17 09:33:39;;;;;;;7.95;2.00;;;;;;;18.05;63.87;102860.94;5093789;28;20507;-30
2022/03/17 09:36:09;;;;;;;10.00;2.03;;;;;;;18.15;62.41;102860.84;5094034;28;20099;-30
2022/03/17 09:38:37;;;;;;;9.45;1.73;;;;;;;18.27;62.12;102876.50;5093878;28;20085;-30
2022/03/17 09:41:23;;;;;;;9.68;1.70;;;;;;;18.48;61.25;102875.94;5094055;28;20397;-32
2022/03/17 09:43:53;;;;;;;11.43;2.20;;;;;;;18.41;60.50;102883.09;5085547;28;20051;-30
2022/03/17 09:46:22;;;;;;;10.77;2.00;;;;;;;18.42;60.38;102898.91;5093317;28;20436;-30
2022/03/17 09:48:53;;;;;;;10.13;1.85;;;;;;;18.53;59.40;102894.81;5094235;28;20048;-31
2022/03/17 09:51:23;;;;;;;10.68;2.28;;;;;;;18.50;58.80;102895.41;5090984;28;20080;-30
2022/03/17 09:53:52;;;;;;;7.53;1.88;;;;;;;18.49;58.71;102911.53;5093441;28;20052;-30
2022/03/17 09:56:23;;;;;;;10.85;2.45;;;;;;;18.31;58.18;102914.34;5092465;28;20050;-30
2022/03/17 09:58:53;;;;;;;11.70;2.08;;;;;;;18.29;58.62;102922.25;5093712;28;20040;-29
2022/03/17 10:01:22;;;;;;;12.13;2.03;;;;;;;18.32;58.06;102924.50;5093437;28;20048;-30
2022/03/17 10:03:51;;;;;;;9.77;2.13;;;;;;;18.33;57.71;102929.00;5090779;28;20074;-32
2022/03/17 10:06:20;;;;;;;11.13;2.20;;;;;;;18.40;56.87;102937.94;5093106;28;20071;-30
2022/03/17 10:08:49;;;;;;;10.95;2.03;;;;;;;18.37;56.91;102935.75;5092257;28;20501;-30
2022/03/17 10:11:17;;;;;;;8.68;1.83;;;;;;;18.46;57.49;102943.25;5093563;28;20052;-31
2022/03/17 10:13:46;;;;;;;11.32;2.00;;;;;;;18.63;57.04;102945.59;5093089;28;20048;-31
2022/03/17 10:16:18;;;;;;;9.25;1.70;;;;;;;18.86;56.90;102958.00;5093441;28;20039;-30
2022/03/17 10:18:46;;;;;;;10.57;2.70;;;;;;;18.91;56.92;102961.63;5093969;28;20083;-32
2022/03/17 10:21:17;;;;;;;11.70;2.33;;;;;;;19.09;55.93;102970.41;5092749;28;20052;-30
2022/03/17 10:23:50;;;;;;;10.40;2.00;;;;;;;19.13;55.39;102978.00;5093595;28;20086;-30
2022/03/17 10:26:32;;;;;;;8.98;2.20;;;;;;;18.92;53.00;102987.94;5093295;28;20048;-30
2022/03/17 10:29:04;;;;;;;;;;;;;;;18.64;53.42;102998.19;5092897;28;20044;-30
2022/03/17 10:31:33;;;;;;;10.13;2.17;;;;;;;18.77;57.06;103005.13;5085867;28;19920;-30
2022/03/17 10:34:05;;;;;;;9.23;1.75;;;;;;;18.96;56.48;103005.16;5092321;28;20071;-30
2022/03/17 10:36:33;;;;;;;10.35;1.98;;;;;;;19.05;55.25;103011.78;5092650;28;20060;-30
2022/03/17 10:39:08;;;;;;;9.65;2.25;;;;;;;18.95;54.28;103009.13;5093131;28;20059;-30
2022/03/17 10:41:41;;;;;;;9.82;1.90;;;;;;;18.93;54.01;103021.56;5092524;28;20043;-30
2022/03/17 10:44:11;;;;;;;9.40;1.92;;;;;;;18.96;53.69;103025.78;5092009;28;20047;-30
2022/03/17 10:46:54;;;;;;;10.02;2.03;;;;;;;18.82;51.29;103027.66;5092702;28;20044;-36
2022/03/17 10:49:22;;;;;;;7.18;1.80;;;;;;;18.57;53.57;103035.31;5092224;28;20049;-30
2022/03/17 10:51:54;;;;;;;9.93;1.83;;;;;;;18.63;53.36;103047.41;5092915;28;20481;-29
2022/03/17 10:54:22;;;;;;;11.15;2.00;;;;;;;18.76;53.00;103045.84;5092816;28;20055;-31
2022/03/17 10:57:02;;;;;;;6.80;1.60;;;;;;;18.75;50.97;103052.66;5091692;28;20036;-34
2022/03/17 10:59:38;;;;;;;9.43;1.92;;;;;;;18.73;52.87;103069.94;5092822;28;20135;-36
2022/03/17 11:02:09;;;;;;;8.77;1.85;;;;;;;18.80;53.74;103073.22;5092204;28;20048;-36
2022/03/17 11:04:38;;;;;;;10.07;1.95;;;;;;;18.72;53.30;103065.41;5092469;28;20083;-30
2022/03/17 11:07:08;;;;;;;7.55;1.88;;;;;;;18.80;53.28;103072.38;5092412;28;20044;-35
2022/03/17 11:09:38;;;;;;;10.23;2.20;;;;;;;18.86;52.85;103076.84;5091393;28;20040;-36
2022/03/17 11:12:08;;;;;;;9.25;2.00;;;;;;;18.86;52.41;103079.66;5092295;28;20089;-36
2022/03/17 11:14:41;;;;;;;5.65;1.50;;;;;;;18.66;51.81;103082.72;5092429;28;20040;-37
2022/03/17 11:17:12;;;;;;;7.50;1.73;;;;;;;18.61;52.06;103086.44;5091673;28;20055;-29
2022/03/17 11:19:42;;;;;;;9.57;1.63;;;;;;;18.59;52.82;103083.06;5092197;28;20036;-29
2022/03/17 11:22:15;;;;;;;10.50;1.88;;;;;;;18.64;52.60;103094.34;5092488;28;20066;-33
2022/03/17 11:24:43;;;;;;;8.73;1.83;;;;;;;18.54;52.53;103097.25;5091418;28;20048;-29
2022/03/17 11:27:12;;;;;;;10.10;2.13;;;;;;;18.51;52.61;103106.34;5092329;28;20048;-35
2022/03/17 11:29:44;;;;;;;7.93;1.70;;;;;;;18.37;52.32;103105.34;5092123;28;20048;-34
2022/03/17 11:32:29;;;;;;;9.77;1.73;;;;;;;18.26;51.13;103115.91;5080522;28;20048;-29
2022/03/17 11:35:09;;;;;;;8.93;2.10;;;;;;;18.24;51.25;103112.53;5089897;28;20070;-29
2022/03/17 11:37:37;;;;;;;9.60;1.88;;;;;;;18.25;53.32;103126.38;5091179;28;20515;-31
2022/03/17 11:40:08;;;;;;;7.72;1.52;;;;;;;18.29;53.00;103126.63;5091685;28;20046;-30